createdAt,value
2022-08-31T00:01:04.095Z,100637.91
2022-08-31T00:05:06.759Z,100652.78
2022-08-31T00:09:08.348Z,100644.97
2022-08-31T00:13:10.003Z,100654.63
2022-08-31T00:17:12.067Z,100651.16
2022-08-31T00:21:13.678Z,100646.03
2022-08-31T00:25:15.245Z,100638.19
2022-08-31T00:29:17.344Z,100653.06
2022-08-31T00:33:19.165Z,100639.97
2022-08-31T00:37:20.936Z,100654.94
2022-08-31T00:41:26.635Z,100654.94
2022-08-31T00:45:28.765Z,100656.78
2022-08-31T00:49:34.394Z,100654.34
2022-08-31T00:53:37.216Z,100653.56
2022-08-31T00:57:42.660Z,100655.44
2022-08-31T01:01:44.557Z,100662.50
2022-08-31T01:05:46.356Z,100663.56
2022-08-31T01:09:55.504Z,100668.13
2022-08-31T01:13:58.339Z,100664.78
2022-08-31T01:18:02.983Z,100671.03
2022-08-31T01:22:07.256Z,100665.91
2022-08-31T01:26:13.190Z,100679.94
2022-08-31T01:30:22.065Z,100678.25
2022-08-31T01:34:24.101Z,100681.75
2022-08-31T01:38:26.685Z,100682.69
2022-08-31T01:42:30.919Z,100685.31
2022-08-31T01:46:36.029Z,100682.72
2022-08-31T01:50:38.159Z,100675.78
2022-08-31T01:54:39.736Z,100669.75
2022-08-31T01:58:42.576Z,100681.09
2022-08-31T02:03:08.829Z,100671.56
2022-08-31T02:07:11.413Z,100663.78
2022-08-31T02:11:12.974Z,100667.28
2022-08-31T02:15:16.039Z,100665.56
2022-08-31T02:19:17.841Z,100664.69
2022-08-31T02:23:19.933Z,100665.59
2022-08-31T02:27:21.688Z,100668.22
2022-08-31T02:31:23.377Z,100662.16
2022-08-31T02:35:32.283Z,100664.84
2022-08-31T02:39:34.573Z,100668.34
2022-08-31T02:43:36.241Z,100658.81
2022-08-31T02:47:38.896Z,100670.19
2022-08-31T02:51:59.490Z,100659.75
2022-08-31T02:56:01.824Z,100673.66
2022-08-31T03:00:05.922Z,100675.38
2022-08-31T03:04:07.695Z,100677.97
2022-08-31T03:08:09.382Z,100679.75
2022-08-31T03:12:11.315Z,100686.75
2022-08-31T03:16:15.516Z,100688.56
2022-08-31T03:20:19.041Z,100688.66
2022-08-31T03:24:21.336Z,100688.72
2022-08-31T03:28:23.599Z,100691.28
2022-08-31T03:32:45.562Z,100698.22
2022-08-31T03:36:47.264Z,100691.31
2022-08-31T03:40:50.904Z,100694.78
2022-08-31T03:44:53.136Z,100690.44
2022-08-31T03:49:02.788Z,100693.91
2022-08-31T03:53:08.579Z,100696.50
2022-08-31T03:57:10.282Z,100692.16
2022-08-31T04:01:15.097Z,100700.88
2022-08-31T04:05:44.080Z,100705.22
2022-08-31T04:09:50.777Z,100696.50
2022-08-31T04:14:12.651Z,100697.41
2022-08-31T04:18:36.929Z,100704.38
2022-08-31T04:22:39.328Z,100700.03
2022-08-31T04:26:59.688Z,100694.81
2022-08-31T04:31:08.874Z,100698.34
2022-08-31T04:35:10.706Z,100690.50
2022-08-31T04:39:13.707Z,100699.25
2022-08-31T04:43:15.493Z,100715.78
2022-08-31T04:47:17.117Z,100715.78
2022-08-31T04:51:27.937Z,100721.84
2022-08-31T04:55:29.586Z,100720.09
2022-08-31T04:59:32.238Z,100725.31
2022-08-31T05:03:56.756Z,100721.81
2022-08-31T05:07:58.671Z,100727.03
2022-08-31T05:12:00.261Z,100707.91
2022-08-31T05:16:05.561Z,100724.47
2022-08-31T05:20:07.455Z,100724.50
2022-08-31T05:24:18.889Z,100719.31
2022-08-31T05:28:23.375Z,100728.84
2022-08-31T05:32:25.445Z,100736.69
2022-08-31T05:36:28.185Z,100750.66
2022-08-31T05:40:29.874Z,100757.66
2022-08-31T05:44:34.587Z,100750.72
2022-08-31T05:48:37.725Z,100759.41
2022-08-31T05:52:41.203Z,100759.41
2022-08-31T05:56:43.487Z,100763.81
2022-08-31T06:00:45.428Z,100760.38
2022-08-31T06:05:20.286Z,100764.72
2022-08-31T06:09:24.379Z,100777.78
2022-08-31T06:13:26.253Z,100766.50
2022-08-31T06:17:29.125Z,100768.28
2022-08-31T06:21:35.798Z,100770.91
2022-08-31T06:25:38.194Z,100787.50
2022-08-31T06:29:41.953Z,100790.97
2022-08-31T06:33:44.074Z,100792.72
2022-08-31T06:37:51.376Z,100797.91
2022-08-31T06:42:11.689Z,100792.63
2022-08-31T06:46:33.264Z,100794.34
2022-08-31T06:50:44.544Z,100792.59
2022-08-31T06:54:46.154Z,100797.91
2022-08-31T06:59:07.754Z,100798.75
2022-08-31T07:03:41.078Z,100801.31
2022-08-31T07:07:42.794Z,100799.56
2022-08-31T07:11:50.104Z,100807.31
2022-08-31T07:15:51.800Z,100815.94
2022-08-31T07:19:54.494Z,100818.53
2022-08-31T07:23:59.632Z,100828.97
2022-08-31T07:28:02.054Z,100825.56
2022-08-31T07:32:03.852Z,100828.97
2022-08-31T07:36:08.239Z,100837.69
2022-08-31T07:40:50.017Z,100849.94
2022-08-31T07:44:54.114Z,100848.16
2022-08-31T07:48:57.014Z,100843.72
2022-08-31T07:53:02.884Z,100853.34
2022-08-31T07:57:25.631Z,100856.84
2022-08-31T08:01:32.198Z,100856.84
2022-08-31T08:05:41.588Z,100857.72
2022-08-31T08:10:14.141Z,100868.16
2022-08-31T08:14:17.050Z,100878.63
2022-08-31T08:18:29.272Z,100881.28
2022-08-31T08:22:51.549Z,100882.16
2022-08-31T08:27:20.241Z,100890.84
2022-08-31T08:31:28.918Z,100896.03
2022-08-31T08:35:32.245Z,100904.63
2022-08-31T08:39:33.906Z,100909.78
2022-08-31T08:43:52.715Z,100910.63
2022-08-31T08:47:57.008Z,100920.19
2022-08-31T08:52:03.285Z,100924.63
2022-08-31T08:56:29.724Z,100929.88
2022-08-31T09:00:28.735Z,100930.66
2022-08-31T09:04:33.557Z,100940.66
2022-08-31T09:08:54.725Z,100940.47
2022-08-31T09:13:03.164Z,100941.41
2022-08-31T09:17:10.741Z,100950.22
2022-08-31T09:21:25.847Z,100952.06
2022-08-31T09:25:33.293Z,100942.66
2022-08-31T09:29:45.022Z,100939.19
2022-08-31T09:33:50.999Z,100943.50
2022-08-31T09:38:01.959Z,100935.75
2022-08-31T09:42:14.681Z,100938.41
2022-08-31T09:46:28.688Z,100941.78
2022-08-31T09:50:41.546Z,100936.38
2022-08-31T09:55:13.444Z,100940.00
2022-08-31T09:59:37.304Z,100940.97
2022-08-31T10:03:45.510Z,100938.38
2022-08-31T10:08:04.951Z,100939.03
2022-08-31T10:12:11.331Z,100942.31
2022-08-31T10:17:10.179Z,100931.19
2022-08-31T10:21:21.372Z,100921.72
2022-08-31T10:25:31.965Z,100929.47
2022-08-31T10:29:46.019Z,100925.19
2022-08-31T10:34:20.958Z,100928.81
2022-08-31T10:38:26.676Z,100927.75
2022-08-31T10:42:32.330Z,100924.31
2022-08-31T10:46:35.528Z,100923.63
2022-08-31T10:50:47.972Z,100916.00
2022-08-31T10:55:30.438Z,100917.75
2022-08-31T10:59:51.827Z,100908.25
2022-08-31T11:04:01.589Z,100918.66
2022-08-31T11:08:45.300Z,100917.81
2022-08-31T11:12:52.120Z,100917.78
2022-08-31T11:17:15.148Z,100908.19
2022-08-31T11:21:45.189Z,100920.38
2022-08-31T11:26:09.473Z,100918.66
2022-08-31T11:30:27.724Z,100910.81
2022-08-31T11:34:34.600Z,100916.84
2022-08-31T11:38:52.234Z,100909.81
2022-08-31T11:43:01.008Z,100907.25
2022-08-31T11:47:12.891Z,100902.91
2022-08-31T11:51:30.674Z,100910.78
2022-08-31T11:55:51.562Z,100911.53
2022-08-31T11:59:54.386Z,100901.06
2022-08-31T12:04:03.705Z,100903.66
2022-08-31T12:08:07.627Z,100902.72
2022-08-31T12:12:12.777Z,100908.66
2022-08-31T12:16:28.018Z,100907.84
2022-08-31T12:21:17.477Z,100899.91
2022-08-31T12:25:37.770Z,100905.94
2022-08-31T12:29:41.101Z,100903.31
2022-08-31T12:33:57.153Z,100894.69
2022-08-31T12:38:08.047Z,100895.59
2022-08-31T12:42:11.231Z,100886.91
2022-08-31T12:46:43.977Z,100892.09
2022-08-31T12:50:56.900Z,100886.19
2022-08-31T12:55:26.820Z,100879.13
2022-08-31T12:59:57.359Z,100875.31
2022-08-31T13:04:00.501Z,100851.41
2022-08-31T13:08:19.879Z,100846.63
2022-08-31T13:12:23.723Z,100840.44
2022-08-31T13:16:25.420Z,100827.63
2022-08-31T13:20:40.061Z,100831.97
2022-08-31T13:24:45.157Z,100833.00
2022-08-31T13:29:00.084Z,100831.44
2022-08-31T13:33:11.768Z,100829.09
2022-08-31T13:37:32.185Z,100833.78
2022-08-31T13:41:37.315Z,100825.13
2022-08-31T13:45:50.375Z,100815.66
2022-08-31T13:50:03.203Z,100817.88
2022-08-31T13:54:07.410Z,100823.44
2022-08-31T13:58:26.162Z,100821.59
2022-08-31T14:02:36.349Z,100824.44
2022-08-31T14:06:39.118Z,100812.34
2022-08-31T14:10:46.270Z,100811.47
2022-08-31T14:14:48.895Z,100814.28
2022-08-31T14:18:56.005Z,100805.59
2022-08-31T14:22:57.560Z,100817.00
2022-08-31T14:27:00.255Z,100807.50
2022-08-31T14:31:12.483Z,100811.16
2022-08-31T14:35:14.362Z,100806.81
2022-08-31T14:39:16.423Z,100805.22
2022-08-31T14:43:25.762Z,100806.13
2022-08-31T14:47:31.463Z,100785.00
2022-08-31T14:51:34.163Z,100784.72
2022-08-31T14:55:39.334Z,100792.59
2022-08-31T14:59:44.627Z,100782.81
2022-08-31T15:03:46.230Z,100772.97
2022-08-31T15:07:49.136Z,100775.53
2022-08-31T15:11:51.242Z,100774.47
2022-08-31T15:15:54.832Z,100766.50
2022-08-31T15:19:57.827Z,100771.84
2022-08-31T15:23:59.458Z,100768.72
2022-08-31T15:28:01.748Z,100771.38
2022-08-31T15:32:03.496Z,100781.03
2022-08-31T15:36:09.023Z,100770.50
2022-08-31T15:40:11.432Z,100771.81
2022-08-31T15:44:17.130Z,100770.47
2022-08-31T15:48:37.352Z,100768.69
2022-08-31T15:52:43.824Z,100761.47
2022-08-31T15:56:47.323Z,100767.13
2022-08-31T16:00:50.861Z,100767.56
2022-08-31T16:04:54.620Z,100747.72
2022-08-31T16:08:56.786Z,100748.75
2022-08-31T16:12:58.445Z,100732.03
2022-08-31T16:17:00.035Z,100724.63
2022-08-31T16:21:06.278Z,100714.16
2022-08-31T16:25:12.939Z,100710.13
2022-08-31T16:29:19.071Z,100722.69
2022-08-31T16:33:20.715Z,100712.28
2022-08-31T16:37:23.766Z,100704.50
2022-08-31T16:41:30.498Z,100707.19
2022-08-31T16:45:32.741Z,100708.97
2022-08-31T16:49:36.035Z,100707.44
2022-08-31T16:53:45.108Z,100713.63
2022-08-31T16:57:46.747Z,100705.75
2022-08-31T17:01:48.539Z,100706.59
2022-08-31T17:05:52.534Z,100706.28
2022-08-31T17:10:06.945Z,100705.34
2022-08-31T17:14:08.717Z,100708.81
2022-08-31T17:18:10.940Z,100711.44
2022-08-31T17:22:21.447Z,100706.28
2022-08-31T17:26:30.851Z,100702.09
2022-08-31T17:30:32.454Z,100709.16
2022-08-31T17:34:36.780Z,100718.91
2022-08-31T17:38:38.419Z,100725.97
2022-08-31T17:42:40.233Z,100726.97
2022-08-31T17:46:50.058Z,100736.56
2022-08-31T17:50:51.729Z,100737.53
2022-08-31T17:54:53.638Z,100740.19
2022-08-31T17:58:55.278Z,100738.50
2022-08-31T18:02:56.915Z,100737.66
2022-08-31T18:06:58.607Z,100748.09
2022-08-31T18:11:00.267Z,100750.69
2022-08-31T18:15:01.908Z,100754.19
2022-08-31T18:19:03.711Z,100755.09
2022-08-31T18:23:05.664Z,100765.56
2022-08-31T18:27:09.615Z,100762.13
2022-08-31T18:31:11.260Z,100757.78
2022-08-31T18:35:14.359Z,100762.16
2022-08-31T18:39:34.807Z,100764.72
2022-08-31T18:44:01.559Z,100773.44
2022-08-31T18:52:28.013Z,100777.78
2022-08-31T18:56:30.429Z,100776.91
2022-08-31T19:00:33.023Z,100772.56
2022-08-31T19:04:37.300Z,100774.38
2022-08-31T19:08:38.926Z,100779.59
2022-08-31T19:12:42.579Z,100775.28
2022-08-31T19:16:44.296Z,100776.19
2022-08-31T19:20:45.958Z,100772.75
2022-08-31T19:24:48.171Z,100784.03
2022-08-31T19:28:50.107Z,100782.28
2022-08-31T19:32:52.767Z,100776.22
2022-08-31T19:36:55.527Z,100778.84
2022-08-31T19:40:59.301Z,100779.72
2022-08-31T19:49:23.665Z,100779.75
2022-08-31T19:53:25.745Z,100780.63
2022-08-31T19:57:27.798Z,100784.94
2022-08-31T20:01:33.559Z,100786.69
2022-08-31T20:05:42.824Z,100789.28
2022-08-31T20:09:44.866Z,100786.66
2022-08-31T20:13:46.461Z,100774.50
2022-08-31T20:17:49.435Z,100784.91
2022-08-31T20:22:07.734Z,100781.44
2022-08-31T20:26:09.447Z,100772.75
2022-08-31T20:30:13.576Z,100775.34
2022-08-31T20:34:20.016Z,100771.84
2022-08-31T20:38:21.654Z,100771.84
2022-08-31T20:42:26.396Z,100770.09
2022-08-31T20:46:46.711Z,100771.81
2022-08-31T20:50:49.839Z,100776.09
2022-08-31T20:55:01.760Z,100784.78
2022-08-31T20:59:09.683Z,100785.66
2022-08-31T21:03:14.406Z,100786.50
2022-08-31T21:07:23.154Z,100791.69
2022-08-31T21:11:25.851Z,100794.28
2022-08-31T21:15:28.574Z,100796.00
2022-08-31T21:19:30.218Z,100789.91
2022-08-31T21:23:32.195Z,100795.97
2022-08-31T21:27:33.937Z,100791.59
2022-08-31T21:31:35.972Z,100802.84
2022-08-31T21:35:45.326Z,100807.16
2022-08-31T21:39:46.897Z,100800.22
2022-08-31T21:43:49.080Z,100808.88
2022-08-31T21:47:51.376Z,100805.34
2022-08-31T21:51:55.901Z,100804.41
2022-08-31T21:55:57.560Z,100802.69
2022-08-31T21:59:59.633Z,100805.25
2022-08-31T22:04:02.005Z,100809.50
2022-08-31T22:08:03.623Z,100805.16
2022-08-31T22:12:07.300Z,100806.88
2022-08-31T22:16:16.154Z,100802.50
2022-08-31T22:20:21.866Z,100806.84
2022-08-31T22:24:28.168Z,100802.47
2022-08-31T22:28:30.721Z,100816.31
2022-08-31T22:32:33.945Z,100818.91
2022-08-31T22:36:36.429Z,100817.16
2022-08-31T22:40:39.389Z,100810.19
2022-08-31T22:44:43.603Z,100820.50
2022-08-31T22:48:47.148Z,100819.56
2022-08-31T22:52:48.979Z,100822.19
2022-08-31T22:56:51.211Z,100818.72
2022-08-31T23:00:52.791Z,100823.81
2022-08-31T23:04:54.614Z,100816.84
2022-08-31T23:08:58.127Z,100818.59
2022-08-31T23:12:59.900Z,100817.72
2022-08-31T23:17:05.024Z,100817.69
2022-08-31T23:21:08.623Z,100819.38
2022-08-31T23:25:10.579Z,100815.06
2022-08-31T23:29:13.318Z,100808.94
2022-08-31T23:33:15.284Z,100811.50
2022-08-31T23:37:18.291Z,100807.25
2022-08-31T23:41:21.966Z,100797.72
2022-08-31T23:45:27.937Z,100803.78
2022-08-31T23:49:29.532Z,100798.56
2022-08-31T23:53:31.099Z,100791.56
2022-08-31T23:57:36.951Z,100799.19
